Johannesburg, Michigan
Current Conditions -  °F | °C
As of 12:53 AM on Sunday 26 Oct 2014 (Local Time) from KGLR Reporting Station
Clear Clear  
Wind Chill: 45°   Ceiling: Unl
Heat Index: 48°   Visibility: 10mi
Dew Point: 31°   Wind: 7mph
Humidity: 52%   Direction: NA
Pressure: 29.77"   Gusts: 20mph
Location:  44.99°N, 84.46°W
Report Text: KGLR 260453Z AUTO VRB06G17KT 10SM CLR 09/M01 A2977 RMK AO2 SLP083 T00891006 401440072
Loading
Personal Weather Stations






























Interactive Weather Map
Tropical Storm Tracking
New forecast layout! Learn more

10-Day Weather Forecast

Advertisements
Track Severe Weather on mobile